Time;durP1;ratioP1;P1;durP2;ratioP2;P2;SDS_P1;SDS_P2;PMS_P1;PMS_P2;Temp;Humidity;BMP_temperature;BMP_pressure;BME280_temperature;BME280_humidity;BME280_pressure;Samples;Min_cycle;Max_cycle;Signal;HPM_P1;HPM_P2
2021/05/02 00:00:34;;;;;;;30.38;4.82;;;16.20;99.90;;;15.60;90.45;99377.16;5047319;28;20048;-48
2021/05/02 00:03:03;;;;;;;28.10;4.68;;;16.20;99.90;;;15.52;90.69;99370.28;5049865;28;20476;-49
2021/05/02 00:05:33;;;;;;;23.42;3.15;;;16.10;99.90;;;15.57;90.26;99356.56;5037444;28;20034;-48
2021/05/02 00:08:00;;;;;;;28.55;5.20;;;16.10;99.90;;;15.53;90.61;99355.34;5036562;28;20032;-48
2021/05/02 00:10:29;;;;;;;28.13;4.38;;;16.10;99.90;;;15.52;90.65;99357.16;5046787;28;20033;-46
2021/05/02 00:12:57;;;;;;;22.75;3.22;;;16.10;99.90;;;15.55;90.50;99369.88;5049195;28;20347;-44
2021/05/02 00:15:24;;;;;;;29.45;4.47;;;16.10;99.90;;;15.56;90.06;99368.06;5047954;28;20033;-45
2021/05/02 00:17:52;;;;;;;28.42;3.78;;;16.10;99.90;;;15.54;90.07;99370.88;5046766;28;20115;-47
2021/05/02 00:20:22;;;;;;;26.58;4.28;;;16.10;99.90;;;15.50;90.44;99382.81;5049109;28;20029;-47
2021/05/02 00:22:53;;;;;;;29.48;4.25;;;16.10;99.90;;;15.47;90.62;99396.31;5046795;28;20028;-45
2021/05/02 00:25:24;;;;;;;30.17;4.57;;;16.00;99.90;;;15.46;90.51;99402.59;5041702;28;20126;-49
2021/05/02 00:27:50;;;;;;;19.00;3.17;;;16.00;99.90;;;15.44;90.36;99422.16;5029760;28;20137;-44
2021/05/02 00:30:21;;;;;;;26.20;4.78;;;16.00;99.90;;;15.44;90.37;99432.66;5047976;28;20528;-51
2021/05/02 00:32:51;;;;;;;24.98;4.10;;;16.00;99.90;;;15.40;90.38;99429.63;5047938;28;20107;-51
2021/05/02 00:35:21;;;;;;;38.58;5.45;;;15.90;99.90;;;15.40;90.73;99439.31;5031475;28;20147;-52
2021/05/02 00:37:47;;;;;;;26.77;4.82;;;15.90;99.90;;;15.37;90.96;99443.16;5046704;28;20366;-50
2021/05/02 00:40:20;;;;;;;32.92;4.90;;;15.90;99.90;;;15.38;90.73;99442.16;5038503;28;20124;-46
2021/05/02 00:42:54;;;;;;;38.67;5.78;;;15.90;99.90;;;15.31;91.54;99449.19;5048728;28;20045;-49
2021/05/02 00:45:33;;;;;;;32.78;5.53;;;15.90;99.90;;;15.28;91.69;99453.03;5047694;28;20068;-47
2021/05/02 00:48:09;;;;;;;28.83;4.60;;;15.90;99.90;;;15.29;91.42;99451.22;5047776;28;20052;-49
2021/05/02 00:51:02;;;;;;;34.83;5.93;;;15.80;99.90;;;15.28;91.88;99439.91;5031394;28;20435;-49
2021/05/02 00:53:51;;;;;;;34.75;4.82;;;15.80;99.90;;;15.25;91.62;99435.06;5046431;28;20029;-50
2021/05/02 00:56:36;;;;;;;44.53;5.38;;;15.90;99.90;;;15.22;92.15;99442.50;5047083;28;20063;-49
2021/05/02 00:59:32;;;;;;;31.60;3.47;;;15.80;99.90;;;15.27;92.12;99440.09;5044916;28;20341;-48
2021/05/02 01:02:04;;;;;;;29.23;4.72;;;15.80;99.90;;;15.21;91.96;99446.94;5026357;28;20041;-47
2021/05/02 01:04:32;;;;;;;25.58;4.63;;;15.80;99.90;;;15.22;92.20;99443.31;5047625;28;20099;-47
2021/05/02 01:07:03;;;;;;;29.30;5.30;;;15.80;99.90;;;15.27;91.99;99453.22;5046115;28;20396;-48
2021/05/02 01:09:31;;;;;;;22.40;3.60;;;15.80;99.90;;;15.28;92.09;99441.72;5045549;28;20048;-45
2021/05/02 01:12:00;;;;;;;28.20;4.53;;;15.80;99.90;;;15.24;92.34;99458.88;5027383;28;20080;-45
2021/05/02 01:14:30;;;;;;;28.88;5.10;;;15.80;99.90;;;15.26;92.16;99452.41;5047665;28;20041;-50
2021/05/02 01:16:58;;;;;;;27.58;4.05;;;15.80;99.90;;;15.23;92.20;99465.13;5010999;28;20124;-50
2021/05/02 01:19:27;;;;;;;23.35;4.07;;;15.80;99.90;;;15.23;92.17;99460.69;5028487;28;20056;-52
2021/05/02 01:21:59;;;;;;;32.17;4.82;;;15.80;99.90;;;15.22;92.04;99460.88;5046737;28;20033;-50
2021/05/02 01:24:26;;;;;;;28.85;4.05;;;15.80;99.90;;;15.18;92.11;99478.03;5029936;28;20041;-49
2021/05/02 01:26:53;;;;;;;26.40;4.70;;;15.80;99.90;;;15.17;92.12;99481.66;5045820;28;20033;-43
2021/05/02 01:29:19;;;;;;;25.02;3.88;;;15.70;99.90;;;15.19;92.13;99490.13;5029999;28;20045;-50
2021/05/02 01:31:45;;;;;;;23.55;5.00;;;15.70;99.90;;;15.17;92.08;99486.91;5030447;28;20063;-47
2021/05/02 01:34:11;;;;;;;21.70;3.83;;;15.80;99.90;;;15.18;92.04;99484.09;5032317;28;20033;-50
2021/05/02 01:36:37;;;;;;;25.55;4.65;;;15.70;99.90;;;15.19;92.18;99487.50;5047768;28;20064;-48
2021/05/02 01:39:08;;;;;;;26.73;3.08;;;15.70;99.90;;;15.17;92.36;99492.16;5046335;28;20043;-50
2021/05/02 01:41:36;;;;;;;25.45;4.05;;;15.80;99.90;;;15.19;92.16;99496.19;5046283;28;20059;-49
2021/05/02 01:44:02;;;;;;;18.63;3.10;;;15.80;99.90;;;15.20;92.15;99495.19;5047358;28;20044;-49
2021/05/02 01:46:36;;;;;;;20.52;2.67;;;15.80;99.90;;;15.23;92.10;99502.66;5046490;28;20044;-51
2021/05/02 01:49:02;;;;;;;24.45;2.67;;;15.80;99.90;;;15.28;91.56;99504.69;5029961;28;20033;-45
2021/05/02 01:51:35;;;;;;;22.88;3.72;;;15.80;99.90;;;15.24;91.62;99504.28;5045124;28;20453;-48
2021/05/02 01:54:01;;;;;;;19.20;2.70;;;15.80;99.90;;;15.23;91.77;99507.09;5026106;28;20045;-46
2021/05/02 01:56:30;;;;;;;18.05;3.58;;;15.80;99.90;;;15.23;91.73;99507.09;5046088;28;20492;-47
2021/05/02 01:58:59;;;;;;;17.67;2.80;;;15.80;99.90;;;15.23;91.64;99502.66;5013512;28;20041;-47
2021/05/02 02:01:27;;;;;;;13.95;3.08;;;15.80;99.90;;;15.22;91.72;99501.06;5046308;28;20044;-45
2021/05/02 02:03:56;;;;;;;16.52;2.75;;;15.80;99.90;;;15.21;91.61;99501.25;5046233;28;20494;-48
2021/05/02 02:06:23;;;;;;;17.67;3.60;;;15.80;99.90;;;15.21;91.90;99499.44;5029538;28;20045;-48
2021/05/02 02:08:49;;;;;;;20.35;3.17;;;15.80;99.90;;;15.25;91.38;99502.47;5043717;28;20049;-49
2021/05/02 02:11:16;;;;;;;22.42;3.42;;;15.80;99.90;;;15.23;91.30;99499.22;5043292;28;20032;-46
2021/05/02 02:13:49;;;;;;;17.15;2.85;;;15.80;99.90;;;15.22;91.60;99505.50;5047327;28;20414;-51
2021/05/02 02:16:16;;;;;;;13.23;3.13;;;15.80;99.90;;;15.22;91.57;99508.13;5046157;28;20033;-46
2021/05/02 02:18:42;;;;;;;17.23;2.85;;;15.80;99.90;;;15.22;91.52;99510.75;5047228;28;20428;-47
2021/05/02 02:21:10;;;;;;;19.08;3.35;;;15.80;99.90;;;15.20;91.79;99507.50;5045867;28;20398;-48
2021/05/02 02:23:42;;;;;;;15.60;3.28;;;15.80;99.90;;;15.20;91.47;99510.13;5045693;28;20075;-49
2021/05/02 02:26:34;;;;;;;19.33;3.03;;;15.80;99.90;;;15.22;91.39;99506.28;5044559;28;20033;-52
2021/05/02 02:29:03;;;;;;;11.85;3.20;;;15.80;99.90;;;15.16;91.64;99511.53;5047572;28;20068;-48
2021/05/02 02:31:34;;;;;;;16.08;3.00;;;15.70;99.90;;;15.14;91.71;99508.28;5046428;28;20079;-44
2021/05/02 02:34:04;;;;;;;18.33;3.67;;;15.70;99.90;;;15.19;91.63;99508.50;5047480;28;20082;-49
2021/05/02 02:36:31;;;;;;;14.52;2.92;;;15.70;99.90;;;15.19;91.69;99511.94;5025438;28;20045;-50
2021/05/02 02:38:59;;;;;;;21.13;3.03;;;15.80;99.90;;;15.23;91.55;99509.72;5047121;28;20029;-46
2021/05/02 02:41:27;;;;;;;12.07;2.90;;;15.80;99.90;;;15.19;91.63;99509.31;5046404;28;20094;-49
2021/05/02 02:43:58;;;;;;;14.05;3.22;;;15.80;99.90;;;15.19;91.23;99511.94;5029376;28;20076;-47
2021/05/02 02:46:25;;;;;;;17.95;3.55;;;15.80;99.90;;;15.20;91.28;99513.56;5029706;28;20034;-50
2021/05/02 02:48:58;;;;;;;13.38;2.85;;;15.80;99.90;;;15.22;91.06;99516.00;5031126;28;20056;-47
2021/05/02 02:51:26;;;;;;;11.02;3.55;;;15.80;99.90;;;15.19;91.36;99519.00;5029546;28;20413;-46
2021/05/02 02:53:55;;;;;;;12.27;3.05;;;15.80;99.90;;;15.17;91.18;99519.19;5029845;28;20052;-46
2021/05/02 02:56:22;;;;;;;13.50;3.38;;;15.80;99.90;;;15.17;91.20;99513.94;5022864;28;20036;-50
2021/05/02 02:59:18;;;;;;;14.82;3.03;;;15.80;99.90;;;15.17;91.49;99513.94;5025277;28;20439;-48
2021/05/02 03:01:47;;;;;;;9.00;2.97;;;15.80;99.90;;;15.18;91.00;99504.25;5028836;28;20116;-47
2021/05/02 03:04:17;;;;;;;12.32;2.95;;;15.70;99.90;;;15.14;91.07;99505.66;5030639;28;20033;-44
2021/05/02 03:06:44;;;;;;;13.70;3.80;;;15.70;99.90;;;15.11;91.04;99514.75;5029186;28;20072;-49
2021/05/02 03:09:16;;;;;;;10.95;2.67;;;15.70;99.90;;;15.12;91.02;99516.34;5115652;22;20156;-51
2021/05/02 03:11:43;;;;;;;13.93;2.65;;;15.70;99.90;;;15.14;90.74;99519.59;5032907;28;20495;-50
2021/05/02 03:14:12;;;;;;;10.32;2.58;;;15.70;99.90;;;15.16;90.71;99527.25;5050494;28;20032;-49
2021/05/02 03:16:41;;;;;;;10.35;3.45;;;15.70;99.90;;;15.09;90.87;99529.88;5050304;28;20033;-45
2021/05/02 03:19:26;;;;;;;9.95;2.63;;;15.70;99.90;;;15.06;91.45;99538.16;5050283;28;20047;-46
2021/05/02 03:22:02;;;;;;;9.90;3.07;;;15.60;99.90;;;15.07;91.11;99536.34;5032566;28;20403;-49
2021/05/02 03:24:32;;;;;;;14.90;3.30;;;15.60;99.90;;;15.03;91.28;99537.72;5050229;28;20282;-50
2021/05/02 03:27:06;;;;;;;15.13;3.72;;;15.60;99.90;;;15.06;91.22;99540.78;5032376;28;20036;-50
2021/05/02 03:29:45;;;;;;;13.55;3.53;;;15.60;99.90;;;15.04;90.75;99548.03;5050370;28;20068;-48
2021/05/02 03:32:12;;;;;;;6.60;2.95;;;15.60;99.90;;;14.99;90.89;99553.03;5032297;28;20024;-48
2021/05/02 03:34:43;;;;;;;10.18;2.53;;;15.60;99.90;;;14.98;91.28;99556.69;5050047;28;20033;-50
2021/05/02 03:37:23;;;;;;;9.82;2.92;;;15.50;99.90;;;14.98;91.36;99550.63;5049950;28;20029;-45
2021/05/02 03:39:51;;;;;;;13.02;2.70;;;15.50;99.90;;;14.93;90.80;99559.88;5049993;28;20115;-50
2021/05/02 03:42:17;;;;;;;9.35;3.10;;;15.50;99.90;;;14.92;91.01;99563.50;5050009;28;20419;-46
2021/05/02 03:44:44;;;;;;;9.52;2.80;;;15.50;99.90;;;14.93;90.82;99565.13;5049841;28;20021;-49
2021/05/02 03:47:10;;;;;;;22.48;3.58;;;15.50;99.90;;;14.91;91.06;99561.06;5031803;28;20033;-51
2021/05/02 03:49:37;;;;;;;13.65;2.55;;;15.50;99.90;;;14.85;91.18;99560.03;5049298;28;20039;-49
2021/05/02 03:52:03;;;;;;;8.57;2.67;;;15.40;99.90;;;14.93;90.91;99570.38;5031619;28;20512;-44
2021/05/02 03:54:29;;;;;;;11.05;2.47;;;15.50;99.90;;;14.97;90.74;99573.41;5049531;28;20402;-49
2021/05/02 03:56:56;;;;;;;9.18;2.33;;;15.50;99.90;;;14.90;91.13;99583.88;5049518;28;20029;-44
2021/05/02 03:59:25;;;;;;;12.98;2.55;;;15.50;99.90;;;14.93;91.30;99591.34;5049239;28;20079;-49
2021/05/02 04:02:03;;;;;;;11.82;3.45;;;15.50;99.90;;;14.91;91.31;99590.72;5049453;28;20439;-51
2021/05/02 04:04:35;;;;;;;6.53;2.08;;;15.50;99.90;;;14.91;90.88;99593.34;5049769;28;20033;-46
2021/05/02 04:07:03;;;;;;;9.13;2.65;;;15.50;99.90;;;14.91;90.86;99603.03;5049164;28;20131;-46
2021/05/02 04:09:29;;;;;;;10.15;2.85;;;15.50;99.90;;;14.84;90.99;99600.38;5049006;28;20052;-48
2021/05/02 04:11:56;;;;;;;9.98;2.50;;;15.40;99.90;;;14.84;91.18;99608.25;5049484;28;20084;-52
2021/05/02 04:14:22;;;;;;;13.15;3.17;;;15.40;99.90;;;14.83;91.04;99601.38;5049421;28;20033;-50
2021/05/02 04:17:15;;;;;;;9.15;3.20;;;15.40;99.90;;;14.84;91.48;99607.44;5049421;28;20063;-47
2021/05/02 04:19:47;;;;;;;10.38;3.10;;;15.40;99.90;;;14.83;91.40;99605.81;5045337;28;20041;-46
2021/05/02 04:22:16;;;;;;;9.43;3.00;;;15.40;99.90;;;14.80;91.55;99617.50;5048982;28;20083;-48
2021/05/02 04:24:49;;;;;;;10.38;2.50;;;15.40;99.90;;;14.83;91.70;99616.31;5049026;28;20029;-48
2021/05/02 04:27:16;;;;;;;5.88;2.67;;;15.40;99.90;;;14.82;91.67;99620.72;5049049;28;20063;-48
2021/05/02 04:29:42;;;;;;;9.15;2.72;;;15.40;99.90;;;14.83;91.14;99624.97;5049521;28;20040;-47
2021/05/02 04:32:08;;;;;;;9.30;2.80;;;15.40;99.90;;;14.86;91.33;99629.03;5049510;28;20112;-51
2021/05/02 04:34:34;;;;;;;7.85;2.60;;;15.40;99.90;;;14.86;91.18;99637.72;5048780;28;20073;-51
2021/05/02 04:37:00;;;;;;;9.35;2.72;;;15.40;99.90;;;14.85;91.09;99637.91;5048887;28;20409;-52
2021/05/02 04:39:27;;;;;;;7.88;2.90;;;15.40;99.90;;;14.86;91.25;99658.69;5049070;28;20136;-52
2021/05/02 04:41:54;;;;;;;8.77;2.80;;;15.40;99.90;;;14.82;91.30;99656.63;5048877;28;20115;-53
2021/05/02 04:44:21;;;;;;;12.88;3.60;;;15.40;99.90;;;14.75;91.79;99671.50;5048851;28;20041;-52
2021/05/02 04:46:48;;;;;;;12.98;2.92;;;15.40;99.90;;;14.72;91.88;99656.97;5048567;28;20048;-53
2021/05/02 04:49:14;;;;;;;6.80;3.20;;;15.30;99.90;;;14.74;91.65;99669.88;5048398;28;20082;-51
2021/05/02 04:51:41;;;;;;;8.07;2.67;;;15.30;99.90;;;14.76;91.67;99673.13;5048803;28;20032;-48
2021/05/02 04:54:10;;;;;;;12.60;2.63;;;15.40;99.90;;;14.78;91.38;99671.94;5048516;28;20029;-51
2021/05/02 04:56:37;;;;;;;9.18;1.90;;;15.40;99.90;;;14.84;91.09;99667.75;5048689;28;20044;-48
2021/05/02 04:59:05;;;;;;;5.32;2.75;;;15.40;99.90;;;14.90;90.53;99670.41;5048512;28;20526;-49
2021/05/02 05:01:33;;;;;;;11.20;3.08;;;15.40;99.90;;;14.87;90.80;99670.78;5047418;28;20476;-51
2021/05/02 05:03:58;;;;;;;7.18;2.38;;;15.40;99.90;;;14.88;91.05;99684.72;5048518;28;20033;-50
2021/05/02 05:06:25;;;;;;;5.28;2.25;;;15.40;99.90;;;14.93;91.00;99701.50;5048667;28;20382;-46
2021/05/02 05:08:52;;;;;;;5.38;2.05;;;15.50;99.90;;;14.98;90.87;99697.50;5048010;28;20171;-48
2021/05/02 05:11:19;;;;;;;9.02;2.42;;;15.50;99.90;;;14.96;90.64;99696.88;5048248;28;20112;-48
2021/05/02 05:13:45;;;;;;;9.57;2.28;;;15.50;99.90;;;14.96;91.08;99704.75;5048725;28;20103;-49
2021/05/02 05:16:11;;;;;;;6.65;2.58;;;15.50;99.90;;;14.94;90.98;99702.31;5047981;28;20526;-49
2021/05/02 05:18:37;;;;;;;8.50;2.58;;;15.50;99.90;;;15.00;91.28;99700.75;5030133;28;20036;-50
2021/05/02 05:21:03;;;;;;;12.05;2.50;;;15.50;99.90;;;15.11;90.94;99703.66;5048182;28;20037;-47
2021/05/02 05:23:29;;;;;;;7.63;2.70;;;15.60;99.90;;;15.10;90.59;99709.09;5047965;28;20033;-48
2021/05/02 05:25:55;;;;;;;9.40;2.25;;;15.70;99.90;;;15.10;90.63;99706.47;5047761;28;20040;-47
2021/05/02 05:28:25;;;;;;;5.72;2.05;;;15.70;99.90;;;15.09;90.33;99704.84;5047942;28;20025;-46
2021/05/02 05:30:53;;;;;;;4.85;1.50;;;15.60;99.90;;;15.11;90.27;99705.47;5047682;28;20033;-45
2021/05/02 05:33:19;;;;;;;9.10;1.35;;;15.70;99.90;;;15.12;90.16;99712.34;5047765;28;20033;-48
2021/05/02 05:35:45;;;;;;;6.38;1.40;;;15.70;99.90;;;15.14;90.21;99710.31;5029938;28;20045;-49
2021/05/02 05:38:12;;;;;;;8.40;1.25;;;15.70;99.90;;;15.14;89.88;99710.31;5048001;28;20029;-46
2021/05/02 05:40:38;;;;;;;6.10;1.10;;;15.80;99.90;;;15.11;89.78;99703.66;5047686;28;20037;-50
2021/05/02 05:43:04;;;;;;;5.18;1.20;;;15.80;99.90;;;15.12;89.52;99710.50;5047808;28;20040;-52
2021/05/02 05:45:32;;;;;;;6.22;1.00;;;15.70;99.90;;;15.08;90.32;99718.97;5047596;28;20353;-47
2021/05/02 05:47:59;;;;;;;11.00;1.15;;;15.70;99.90;;;15.07;90.01;99718.16;5047559;28;20036;-48
2021/05/02 05:50:26;;;;;;;6.95;0.88;;;15.70;99.90;;;15.05;90.31;99714.09;5047430;28;20037;-47
2021/05/02 05:52:53;;;;;;;7.80;1.08;;;15.70;99.90;;;15.06;90.12;99720.97;5047553;28;20074;-45
2021/05/02 05:55:20;;;;;;;5.43;0.95;;;15.60;99.90;;;15.07;89.90;99710.28;5047515;28;20148;-46
2021/05/02 05:57:48;;;;;;;10.98;1.13;;;15.60;99.90;;;15.04;89.87;99722.97;5029387;28;20508;-50
2021/05/02 06:00:17;;;;;;;7.20;0.77;;;15.60;99.90;;;15.05;89.66;99725.41;5047392;28;20094;-47
2021/05/02 06:02:43;;;;;;;7.15;1.35;;;15.70;99.90;;;15.07;89.63;99735.72;5047359;28;20119;-46
2021/05/02 06:05:10;;;;;;;6.65;0.70;;;15.60;99.90;;;15.03;89.50;99737.91;5047661;28;20128;-47
2021/05/02 06:07:36;;;;;;;5.82;1.17;;;15.60;99.90;;;15.01;89.89;99739.09;5047264;28;20488;-47
2021/05/02 06:10:04;;;;;;;4.63;1.40;;;15.60;99.90;;;15.03;90.01;99747.59;5047083;28;20064;-52
2021/05/02 06:12:30;;;;;;;5.63;1.15;;;15.60;99.90;;;14.98;89.76;99749.97;5028992;28;20423;-47
2021/05/02 06:14:56;;;;;;;4.20;1.10;;;15.60;99.90;;;14.96;90.19;99757.22;5047432;28;20639;-47
2021/05/02 06:17:22;;;;;;;10.55;1.10;;;15.60;99.90;;;14.91;90.46;99755.97;5029183;28;20037;-49
2021/05/02 06:19:48;;;;;;;4.15;1.00;;;15.50;99.90;;;14.91;90.26;99761.22;5047418;28;20172;-49
2021/05/02 06:22:14;;;;;;;6.93;1.10;;;15.50;99.90;;;14.94;90.33;99760.84;5047401;28;20037;-50
2021/05/02 06:24:40;;;;;;;5.57;0.90;;;15.50;99.90;;;15.00;90.08;99763.69;5047147;28;20563;-49
2021/05/02 06:27:06;;;;;;;10.00;1.25;;;15.50;99.90;;;15.02;90.03;99762.50;5047017;28;20090;-48
2021/05/02 06:29:32;;;;;;;6.50;1.85;;;15.60;99.90;;;15.05;90.13;99767.38;5047245;28;20029;-51
2021/05/02 06:31:58;;;;;;;7.57;1.05;;;15.60;99.90;;;15.07;89.78;99773.25;5047062;28;20090;-52
2021/05/02 06:34:24;;;;;;;5.38;1.10;;;15.60;99.90;;;15.13;89.87;99779.53;5047116;28;20055;-50
2021/05/02 06:36:57;;;;;;;6.70;0.90;;;15.70;99.90;;;15.16;89.74;99774.72;5046958;28;20508;-53
2021/05/02 06:39:23;;;;;;;4.85;0.95;;;15.70;99.90;;;15.17;89.21;99778.94;5046970;28;20072;-50
2021/05/02 06:41:49;;;;;;;9.63;1.80;;;15.70;99.90;;;15.24;88.66;99787.69;5047035;28;20846;-49
2021/05/02 06:44:15;;;;;;;4.68;1.10;;;15.80;99.90;;;15.27;88.74;99783.88;5047046;28;20053;-52
2021/05/02 06:46:41;;;;;;;6.05;0.60;;;15.80;99.90;;;15.33;88.58;99790.16;5047046;28;20090;-48
2021/05/02 06:49:08;;;;;;;5.13;0.65;;;15.90;99.90;;;15.38;88.62;99790.41;5046777;28;20041;-55
2021/05/02 06:51:35;;;;;;;6.20;0.70;;;15.90;99.90;;;15.45;88.43;99802.59;5046790;28;20033;-48
2021/05/02 06:54:02;;;;;;;7.93;0.80;;;16.00;99.90;;;15.48;88.36;99804.00;5046795;28;20036;-52
2021/05/02 06:56:29;;;;;;;3.72;0.60;;;16.00;99.90;;;15.41;88.43;99803.97;5046614;28;20369;-53
2021/05/02 06:58:55;;;;;;;7.18;0.70;;;16.00;99.90;;;15.49;88.29;99814.31;5046851;28;20068;-50
2021/05/02 07:01:22;;;;;;;5.15;0.50;;;16.00;99.90;;;15.65;87.96;99815.03;5046978;28;20489;-52
2021/05/02 07:03:48;;;;;;;6.22;0.55;;;16.10;99.90;;;15.75;87.55;99810.25;5046855;28;20029;-49
2021/05/02 07:06:15;;;;;;;8.13;1.08;;;16.30;99.90;;;15.91;86.77;99826.50;5046908;28;20037;-49
2021/05/02 07:08:41;;;;;;;8.13;1.02;;;16.40;99.90;;;16.12;86.54;99816.88;5046516;28;20072;-50
2021/05/02 07:11:07;;;;;;;10.02;0.90;;;16.60;99.90;;;16.20;85.61;99820.16;5046603;28;20107;-50
2021/05/02 07:13:34;;;;;;;5.70;0.75;;;16.80;99.90;;;16.21;85.73;99821.78;5046903;28;20128;-47
2021/05/02 07:16:00;;;;;;;5.43;0.70;;;16.80;99.90;;;16.20;85.86;99819.34;5047264;28;20385;-50
2021/05/02 07:18:32;;;;;;;6.90;0.95;;;16.80;99.90;;;16.14;86.04;99820.94;5046736;28;20067;-53
2021/05/02 07:20:58;;;;;;;7.32;0.73;;;16.80;99.90;;;16.14;85.83;99826.19;5046636;28;20177;-53
2021/05/02 07:23:24;;;;;;;2.65;0.47;;;16.70;99.90;;;16.07;85.89;99825.34;5046468;28;20067;-51
2021/05/02 07:25:50;;;;;;;7.57;0.82;;;16.70;99.90;;;16.11;85.53;99829.22;5049148;28;20092;-46
2021/05/02 07:28:16;;;;;;;5.90;0.80;;;16.70;99.90;;;16.09;85.16;99825.16;5050404;28;20065;-52
2021/05/02 07:30:42;;;;;;;3.08;0.52;;;16.70;99.90;;;16.09;85.29;99830.41;5050277;28;20498;-47
2021/05/02 07:33:08;;;;;;;7.55;1.40;;;16.70;99.90;;;16.02;85.78;99837.47;5050328;28;20143;-47
2021/05/02 07:35:34;;;;;;;6.60;0.80;;;16.60;99.90;;;15.81;86.51;99846.25;5049965;28;20029;-47
2021/05/02 07:38:03;;;;;;;10.32;1.23;;;16.50;99.90;;;15.71;86.26;99848.41;5049783;28;20116;-51
2021/05/02 07:40:29;;;;;;;5.07;0.80;;;16.40;99.90;;;15.58;86.75;99847.34;5049725;28;20029;-49
2021/05/02 07:42:55;;;;;;;7.72;0.50;;;16.30;99.90;;;15.59;86.45;99845.53;5049889;28;20036;-49
2021/05/02 07:45:21;;;;;;;6.38;0.73;;;16.20;99.90;;;15.68;86.71;99856.66;5049904;28;20029;-47
2021/05/02 07:47:48;;;;;;;6.07;0.50;;;16.20;99.90;;;15.80;86.30;99855.94;5050015;28;20123;-46
2021/05/02 07:50:14;;;;;;;4.40;0.40;;;16.30;99.90;;;15.90;85.13;99866.13;5049646;28;20037;-47
2021/05/02 07:52:42;;;;;;;7.07;0.85;;;16.40;99.90;;;15.92;85.15;99867.53;5031397;28;20885;-48
2021/05/02 07:55:10;;;;;;;6.50;0.60;;;16.50;99.90;;;15.76;85.33;99877.53;5049688;28;20029;-49
2021/05/02 07:57:36;;;;;;;7.60;0.45;;;16.40;99.90;;;15.77;85.36;99879.97;5049394;28;20033;-50
2021/05/02 08:00:06;;;;;;;7.45;0.52;;;16.40;99.90;;;15.76;85.12;99880.16;5049702;28;20033;-46
2021/05/02 08:02:32;;;;;;;12.85;0.50;;;16.40;99.90;;;15.81;85.01;99877.78;5032198;28;20404;-51
2021/05/02 08:04:58;;;;;;;8.77;0.95;;;16.40;99.90;;;15.92;84.61;99882.50;5049375;28;20039;-47
2021/05/02 08:07:24;;;;;;;13.13;0.68;;;16.50;99.90;;;15.81;84.82;99883.84;5049258;28;20037;-47
2021/05/02 08:09:51;;;;;;;10.02;0.75;;;16.50;99.90;;;15.83;84.83;99887.09;5049372;28;20068;-50
2021/05/02 08:12:17;;;;;;;13.32;0.50;;;16.50;99.90;;;15.76;85.19;99880.97;5049500;28;20477;-46
2021/05/02 08:14:44;;;;;;;6.20;0.60;;;16.40;99.90;;;15.79;84.85;99887.66;5049254;28;20064;-47
2021/05/02 08:17:10;;;;;;;8.70;0.50;;;16.30;99.90;;;15.78;84.72;99889.47;5049600;28;20033;-44
2021/05/02 08:19:36;;;;;;;10.90;0.80;;;16.40;99.90;;;15.86;84.77;99899.84;5049068;28;20067;-49
2021/05/02 08:22:02;;;;;;;6.38;0.52;;;16.40;99.90;;;15.92;84.24;99895.63;5049305;28;20063;-47
2021/05/02 08:24:31;;;;;;;4.78;0.40;;;16.50;99.90;;;15.86;84.59;99896.41;5049089;28;20156;-49
2021/05/02 08:26:58;;;;;;;7.50;0.60;;;16.50;99.90;;;15.86;84.27;99899.03;5049221;28;20041;-52
2021/05/02 08:29:24;;;;;;;9.15;0.40;;;16.50;99.90;;;15.76;84.21;99895.91;5048998;28;20055;-48
2021/05/02 08:31:50;;;;;;;10.65;0.65;;;16.50;99.90;;;15.71;84.54;99900.94;5049059;28;20398;-51
2021/05/02 08:34:16;;;;;;;10.30;0.77;;;16.40;99.90;;;15.69;84.42;99903.75;5048660;28;20537;-46
2021/05/02 08:36:42;;;;;;;5.78;0.50;;;16.30;99.90;;;15.64;84.57;99907.94;5048514;28;20460;-50
2021/05/02 08:39:08;;;;;;;4.97;0.70;;;16.30;99.90;;;15.59;84.62;99913.78;5048843;28;20117;-50
2021/05/02 08:41:34;;;;;;;14.68;0.60;;;16.30;99.90;;;15.60;84.56;99918.81;5030819;28;20116;-48
2021/05/02 08:44:02;;;;;;;8.82;0.80;;;16.20;99.90;;;15.62;84.96;99923.06;5049211;28;20380;-46
2021/05/02 08:46:29;;;;;;;7.47;0.73;;;16.20;99.90;;;15.70;84.32;99915.88;5048805;28;20029;-47
2021/05/02 08:48:56;;;;;;;9.55;0.80;;;16.30;99.90;;;15.74;83.82;99926.81;5048650;28;21185;-53
2021/05/02 08:51:23;;;;;;;15.93;1.15;;;16.40;99.90;;;15.64;84.08;99921.06;5048704;28;20037;-49
2021/05/02 08:53:49;;;;;;;10.35;0.90;;;16.30;99.90;;;15.54;84.19;99932.72;5048715;28;20177;-51
2021/05/02 08:56:16;;;;;;;9.75;1.10;;;16.20;99.90;;;15.55;83.77;99934.34;5048565;28;20541;-56
2021/05/02 08:58:42;;;;;;;11.73;0.88;;;16.20;99.90;;;15.62;83.71;99930.97;5048666;28;20037;-53
2021/05/02 09:01:08;;;;;;;11.30;0.88;;;16.20;99.90;;;15.60;83.57;99934.59;5048297;28;20059;-53
2021/05/02 09:03:46;;;;;;;11.45;0.70;;;16.20;99.90;;;15.58;83.46;99939.25;5048707;28;20028;-55
2021/05/02 09:06:21;;;;;;;8.23;0.77;;;16.20;99.90;;;15.47;83.67;99939.72;5048180;28;20036;-51
2021/05/02 09:08:50;;;;;;;8.50;1.07;;;16.10;99.90;;;15.44;83.41;99937.47;5048325;28;20090;-47
2021/05/02 09:11:49;;;;;;;7.63;0.70;;;16.10;99.90;;;15.41;83.20;99948.34;5048269;28;20049;-55
2021/05/02 09:14:22;;;;;;;8.77;0.63;;;16.00;99.90;;;15.44;83.32;99950.59;5048133;28;20507;-53
2021/05/02 09:16:57;;;;;;;9.82;1.38;;;16.00;99.90;;;15.49;83.27;99950.84;5048227;28;20056;-50
2021/05/02 09:19:33;;;;;;;16.03;1.57;;;16.10;99.90;;;15.52;82.79;99952.28;5048222;28;20468;-54
2021/05/02 09:22:14;;;;;;;11.55;0.98;;;16.10;99.90;;;15.59;83.32;99958.44;5030014;28;20170;-50
2021/05/02 09:24:41;;;;;;;17.65;1.20;;;16.20;99.90;;;15.58;83.08;99962.06;5048382;28;20036;-51
2021/05/02 09:27:11;;;;;;;19.75;2.13;;;16.20;99.90;;;15.51;83.41;99967.22;5048090;28;20033;-52
2021/05/02 09:29:39;;;;;;;15.40;1.30;;;16.10;99.90;;;15.47;83.71;99962.53;5048131;28;20535;-51
2021/05/02 09:32:07;;;;;;;8.25;0.80;;;16.10;99.90;;;15.57;83.46;99971.75;5048227;28;20037;-52
2021/05/02 09:34:34;;;;;;;9.55;1.45;;;16.20;99.90;;;15.63;83.39;99969.34;5047732;28;20051;-48
2021/05/02 09:37:06;;;;;;;12.75;1.33;;;16.20;99.90;;;15.60;83.26;99973.97;5049364;23;20099;-52
2021/05/02 09:39:57;;;;;;;12.38;1.02;;;16.20;99.90;;;15.47;83.68;99973.03;5028827;28;20025;-54
2021/05/02 09:42:35;;;;;;;10.45;1.33;;;16.10;99.90;;;15.35;84.00;99971.91;5047612;28;20429;-52
2021/05/02 09:45:08;;;;;;;11.32;1.00;;;16.10;99.90;;;15.55;83.51;99978.97;5047355;28;20112;-40
2021/05/02 09:47:38;;;;;;;11.07;1.15;;;16.10;99.90;;;15.69;83.70;99981.72;5047323;28;20477;-54
2021/05/02 09:50:07;;;;;;;10.63;0.93;;;16.20;99.90;;;15.85;83.00;99984.91;5048000;28;20040;-54
2021/05/02 09:52:49;;;;;;;13.05;0.85;;;16.40;99.90;;;15.89;82.16;99980.88;5047798;28;20033;-53
2021/05/02 09:55:41;;;;;;;6.80;0.63;;;16.50;99.90;;;16.02;82.36;99987.25;5030034;28;20047;-54
2021/05/02 09:58:21;;;;;;;7.70;0.70;;;16.60;99.90;;;16.20;82.06;99991.00;5034944;28;20408;-54
2021/05/02 10:00:49;;;;;;;16.70;1.60;;;16.80;99.90;;;16.49;80.98;99991.78;5034374;28;20080;-54
2021/05/02 10:03:23;;;;;;;10.98;1.02;;;17.00;99.90;;;16.41;80.86;99991.94;5028104;28;20065;-54
2021/05/02 10:06:07;;;;;;;12.00;0.77;;;17.00;99.90;;;16.47;81.16;99999.88;5008745;28;20028;-54
2021/05/02 10:08:36;;;;;;;8.75;0.65;;;17.10;99.90;;;16.27;81.54;99997.13;5034605;28;20123;-53
2021/05/02 10:11:11;;;;;;;14.68;0.90;;;17.00;99.90;;;16.06;82.10;99999.81;5042381;28;20052;-57
2021/05/02 10:13:39;;;;;;;14.40;1.08;;;16.80;99.90;;;15.93;82.58;99995.28;5047692;28;20036;-56
2021/05/02 10:16:06;;;;;;;10.30;1.05;;;16.70;99.90;;;15.98;82.33;99996.50;5042888;28;20029;-55
2021/05/02 10:18:35;;;;;;;6.60;1.10;;;16.60;99.90;;;15.99;82.72;100004.22;5035617;28;20401;-54
2021/05/02 10:21:02;;;;;;;15.20;1.02;;;16.70;99.90;;;15.89;83.03;100001.91;5046121;28;20350;-57
2021/05/02 10:23:30;;;;;;;8.43;1.05;;;16.50;99.90;;;15.80;82.75;100000.41;5029090;28;20061;-55